< < Back
Terminal Aerodrome Forecast


Current Version              Previous Versions:   1  2  3  4  5  6  7  8  9  

Terminal Aerodrome Forecast

317
FTUS44 KOHX 230500
TAFCSV
TAF
KCSV 230528Z 2306/2406 03004KT P6SM FEW028=



Latest METAR

375
SAUS70 KWBC 231200 RRU
MTRCSV
METAR KCSV 231153Z AUTO 00000KT 7SM CLR 03/01 A3021 RMK AO2 SLP232
T00280006 10044 20017 51008


USA.gov is the U.S. government's official web portal to all federal, state and local government web resources and services.